Time;durP1;ratioP1;P1;durP2;ratioP2;P2;SDS_P1;SDS_P2;PMS_P1;PMS_P2;Temp;Humidity;BMP_temperature;BMP_pressure;BME280_temperature;BME280_humidity;BME280_pressure;Samples;Min_cycle;Max_cycle;Signal;HPM_P1;HPM_P2
2023/12/21 00:02:14;;;;;;;3.17;1.27;;;12.40;99.90;;;;;;5003885;28;20052;-85
2023/12/21 00:04:40;;;;;;;2.73;1.10;;;12.10;99.90;;;;;;5005563;28;20030;-86
2023/12/21 00:07:05;;;;;;;3.47;1.38;;;12.10;99.90;;;;;;5001978;28;20246;-85
2023/12/21 00:09:31;;;;;;;3.80;1.20;;;12.10;99.90;;;;;;5029793;28;20028;-85
2023/12/21 00:11:57;;;;;;;2.80;1.20;;;12.10;99.90;;;;;;5011308;28;20033;-84
2023/12/21 00:14:23;;;;;;;2.20;1.07;;;12.10;99.90;;;;;;5017608;28;20075;-84
2023/12/21 00:16:49;;;;;;;3.28;1.00;;;12.10;99.90;;;;;;4995613;28;20036;-83
2023/12/21 00:19:15;;;;;;;2.80;1.20;;;12.10;99.90;;;;;;4991582;28;20763;-82
2023/12/21 00:21:41;;;;;;;2.00;0.97;;;12.10;99.90;;;;;;5016519;28;20121;-87
2023/12/21 00:24:07;;;;;;;2.00;1.00;;;12.10;99.90;;;;;;5029504;28;20229;-83
2023/12/21 00:26:32;;;;;;;3.67;1.05;;;12.10;99.90;;;;;;5001653;28;20484;-85
2023/12/21 00:28:58;;;;;;;3.57;1.00;;;12.10;99.90;;;;;;5006981;28;20069;-86
2023/12/21 00:31:24;;;;;;;4.87;1.10;;;12.10;99.90;;;;;;5003852;28;20029;-84
2023/12/21 00:33:50;;;;;;;2.00;0.80;;;12.10;99.90;;;;;;5018256;28;20287;-86
2023/12/21 00:36:16;;;;;;;2.08;0.98;;;12.10;99.90;;;;;;4986454;28;20279;-84
2023/12/21 00:38:42;;;;;;;2.20;0.90;;;12.20;99.90;;;;;;5012078;28;20032;-85
2023/12/21 00:41:08;;;;;;;2.17;0.90;;;12.20;99.90;;;;;;5013400;28;20200;-85
2023/12/21 00:43:35;;;;;;;1.60;1.00;;;12.20;99.90;;;;;;4995213;28;20033;-85
2023/12/21 00:46:01;;;;;;;1.92;0.80;;;12.20;99.90;;;;;;4979836;28;20136;-86
2023/12/21 00:48:26;;;;;;;2.53;0.80;;;12.10;99.90;;;;;;5021871;28;20028;-85
2023/12/21 00:50:52;;;;;;;2.13;0.87;;;12.20;99.90;;;;;;5003682;28;20103;-84
2023/12/21 00:53:19;;;;;;;2.28;0.90;;;12.20;99.90;;;;;;5001293;28;20037;-86
2023/12/21 00:55:45;;;;;;;2.15;0.85;;;12.20;99.90;;;;;;5031891;28;20028;-87
2023/12/21 00:58:11;;;;;;;2.13;0.80;;;12.20;99.90;;;;;;5001610;28;20879;-87
2023/12/21 01:00:37;;;;;;;3.08;0.98;;;12.20;99.90;;;;;;5020074;28;20060;-86
2023/12/21 01:03:03;;;;;;;2.83;0.82;;;12.20;99.90;;;;;;5011949;28;20128;-85
2023/12/21 01:05:29;;;;;;;2.40;0.90;;;12.20;99.90;;;;;;5015719;28;20481;-84
2023/12/21 01:07:55;;;;;;;2.13;0.83;;;12.30;99.90;;;;;;5004540;28;20028;-85
2023/12/21 01:10:21;;;;;;;2.65;0.80;;;12.20;99.90;;;;;;5016238;28;20042;-86
2023/12/21 01:12:47;;;;;;;2.23;1.07;;;12.20;99.90;;;;;;5014492;28;20029;-84
2023/12/21 01:15:13;;;;;;;4.13;1.20;;;12.30;99.90;;;;;;5012189;28;20733;-84
2023/12/21 01:17:38;;;;;;;3.95;1.10;;;12.30;99.90;;;;;;4994123;28;20445;-85
2023/12/21 01:20:05;;;;;;;3.23;1.10;;;12.30;99.90;;;;;;4990596;28;20550;-86
2023/12/21 01:22:31;;;;;;;4.90;1.20;;;12.30;99.90;;;;;;5004705;28;20136;-85
2023/12/21 01:24:57;;;;;;;3.47;1.10;;;;;;;;;;5008640;28;20676;-88
2023/12/21 01:27:23;;;;;;;4.85;1.33;;;12.30;99.90;;;;;;4980075;28;20407;-85
2023/12/21 01:29:49;;;;;;;3.22;1.10;;;12.30;99.90;;;;;;5008794;28;20230;-85
2023/12/21 01:32:15;;;;;;;4.03;1.13;;;12.30;99.90;;;;;;4998338;28;20009;-86
2023/12/21 01:34:40;;;;;;;4.20;1.08;;;12.30;99.90;;;;;;4981828;28;20519;-86
2023/12/21 01:37:06;;;;;;;4.83;1.27;;;12.30;99.90;;;;;;5010372;28;20022;-85
2023/12/21 01:39:32;;;;;;;4.18;1.40;;;12.30;99.90;;;;;;4995587;28;20497;-86
2023/12/21 01:41:58;;;;;;;2.40;1.30;;;12.40;99.90;;;;;;4991152;28;20021;-88
2023/12/21 01:44:24;;;;;;;4.18;1.30;;;12.30;99.90;;;;;;5021406;28;20021;-87
2023/12/21 01:46:50;;;;;;;3.83;1.60;;;12.30;99.90;;;;;;5022251;28;20576;-87
2023/12/21 01:49:17;;;;;;;5.32;2.03;;;12.30;99.90;;;;;;4994601;28;20021;-84
2023/12/21 01:51:42;;;;;;;3.15;1.15;;;12.30;99.90;;;;;;4983461;28;20368;-88
2023/12/21 01:54:08;;;;;;;4.53;1.37;;;12.30;99.90;;;;;;4999374;28;20033;-85
2023/12/21 01:56:34;;;;;;;6.33;1.47;;;12.30;99.90;;;;;;4998709;28;20299;-85
2023/12/21 01:59:00;;;;;;;3.67;1.15;;;12.30;99.90;;;;;;4996369;28;20530;-87
2023/12/21 02:01:26;;;;;;;4.90;1.40;;;12.30;99.90;;;;;;4988530;28;20061;-86
2023/12/21 02:03:55;;;;;;;4.87;1.17;;;12.30;99.90;;;;;;5008898;28;20021;-84
2023/12/21 02:06:22;;;;;;;4.75;1.13;;;12.30;99.90;;;;;;4965874;28;20022;-86
2023/12/21 02:08:48;;;;;;;3.22;1.27;;;12.30;99.90;;;;;;5011045;28;20018;-85
2023/12/21 02:11:14;;;;;;;5.03;1.20;;;11.80;99.90;;;;;;4989112;28;20014;-86
2023/12/21 02:13:39;;;;;;;3.73;1.20;;;12.30;99.90;;;;;;5018625;28;20103;-85
2023/12/21 02:16:10;;;;;;;5.75;1.63;;;12.30;99.90;;;;;;5010925;28;20048;-86
2023/12/21 02:18:36;;;;;;;3.53;1.30;;;12.30;99.90;;;;;;4989133;28;20021;-86
2023/12/21 02:21:03;;;;;;;4.10;1.20;;;12.30;99.90;;;;;;5012911;28;20474;-84
2023/12/21 02:23:33;;;;;;;6.45;1.50;;;12.40;99.90;;;;;;4996789;28;20358;-85
2023/12/21 02:25:59;;;;;;;4.65;1.10;;;12.40;99.90;;;;;;4992887;28;20025;-83
2023/12/21 02:28:24;;;;;;;4.57;1.30;;;12.40;99.90;;;;;;5011071;28;20563;-86
2023/12/21 02:30:50;;;;;;;3.87;1.47;;;12.40;99.90;;;;;;5019064;28;20040;-88
2023/12/21 02:33:16;;;;;;;4.22;1.40;;;12.30;99.90;;;;;;5011442;28;20087;-85
2023/12/21 02:35:42;;;;;;;4.30;1.50;;;12.40;99.90;;;;;;4986722;28;21384;-86
2023/12/21 02:38:08;;;;;;;6.55;1.50;;;12.30;99.90;;;;;;4989275;28;20464;-84
2023/12/21 02:40:34;;;;;;;4.57;1.42;;;12.30;99.90;;;;;;5009087;28;20824;-84
2023/12/21 02:42:59;;;;;;;4.73;1.70;;;12.40;99.90;;;;;;4987685;28;20038;-86
2023/12/21 02:45:25;;;;;;;4.60;1.27;;;12.30;99.90;;;;;;4998157;28;20718;-84
2023/12/21 02:47:51;;;;;;;4.93;1.80;;;12.40;99.90;;;;;;4994214;28;20525;-84
2023/12/21 02:50:17;;;;;;;6.78;1.55;;;12.30;99.90;;;;;;4998999;28;20145;-85
2023/12/21 02:52:42;;;;;;;4.37;1.20;;;12.30;99.90;;;;;;5001402;28;20100;-82
2023/12/21 02:55:08;;;;;;;5.00;1.57;;;12.40;99.90;;;;;;5016489;28;20736;-86
2023/12/21 02:57:34;;;;;;;4.20;1.23;;;12.40;99.90;;;;;;5019542;28;20223;-87
2023/12/21 03:00:00;;;;;;;3.23;1.33;;;12.30;99.90;;;;;;5018908;28;20693;-84
2023/12/21 03:02:26;;;;;;;4.85;1.50;;;12.30;99.90;;;;;;4994063;28;20299;-83
2023/12/21 03:04:52;;;;;;;6.15;1.85;;;12.40;99.90;;;;;;5032298;28;20425;-83
2023/12/21 03:07:18;;;;;;;4.50;1.10;;;12.20;99.90;;;;;;5008425;28;20036;-86
2023/12/21 03:09:43;;;;;;;6.20;1.40;;;12.40;99.90;;;;;;5024150;28;20029;-83
2023/12/21 03:12:09;;;;;;;5.17;1.37;;;12.40;99.90;;;;;;5012115;28;20018;-86
2023/12/21 03:14:35;;;;;;;6.13;1.00;;;12.50;99.90;;;;;;5023264;28;20037;-85
2023/12/21 03:17:01;;;;;;;6.37;1.30;;;12.40;99.90;;;;;;5033794;28;20021;-89
2023/12/21 03:19:26;;;;;;;3.90;1.30;;;12.50;99.90;;;;;;5016953;28;20382;-86
2023/12/21 03:21:52;;;;;;;6.40;1.30;;;12.40;99.90;;;;;;5041321;28;20013;-86
2023/12/21 03:24:18;;;;;;;10.60;1.50;;;12.50;99.90;;;;;;5017983;28;20029;-87
2023/12/21 03:26:45;;;;;;;4.37;1.40;;;12.50;99.90;;;;;;5060144;28;20025;-85
2023/12/21 03:29:11;;;;;;;4.25;1.20;;;12.50;99.90;;;;;;5040569;28;20037;-88
2023/12/21 03:31:37;;;;;;;4.22;1.08;;;12.50;99.90;;;;;;5045632;28;20124;-85
2023/12/21 03:34:02;;;;;;;5.57;1.40;;;12.50;99.90;;;;;;5052564;28;20033;-84
2023/12/21 03:36:28;;;;;;;7.00;1.38;;;12.50;99.90;;;;;;5041906;28;20028;-87
2023/12/21 03:38:54;;;;;;;4.80;1.23;;;12.50;99.90;;;;;;5005661;28;20012;-85
2023/12/21 03:41:19;;;;;;;5.68;1.20;;;12.50;99.90;;;;;;5044439;28;20028;-87
2023/12/21 03:43:45;;;;;;;6.07;1.37;;;12.60;99.90;;;;;;5022498;28;20045;-86
2023/12/21 03:46:12;;;;;;;6.05;1.52;;;;;;;;;;5043174;28;20067;-85
2023/12/21 03:48:37;;;;;;;3.33;1.13;;;12.20;99.90;;;;;;5033060;28;20064;-87
2023/12/21 03:51:05;;;;;;;3.53;1.50;;;12.60;99.90;;;;;;5046146;28;20029;-85
2023/12/21 03:53:30;;;;;;;3.03;1.38;;;12.60;99.90;;;;;;5010079;28;20430;-87
2023/12/21 03:55:56;;;;;;;7.43;1.40;;;12.60;99.90;;;;;;5018288;28;20033;-85
2023/12/21 03:58:22;;;;;;;5.30;1.67;;;12.60;99.90;;;;;;4993522;28;20028;-85
2023/12/21 04:00:48;;;;;;;8.10;2.10;;;12.60;99.90;;;;;;5014213;28;20040;-83
2023/12/21 04:03:14;;;;;;;5.87;1.37;;;12.60;99.90;;;;;;5000773;28;20032;-86
2023/12/21 04:05:39;;;;;;;5.03;1.40;;;12.60;99.90;;;;;;5010861;28;20219;-83
2023/12/21 04:08:06;;;;;;;4.13;1.23;;;12.60;99.90;;;;;;5003980;28;20017;-86
2023/12/21 04:10:32;;;;;;;3.78;1.38;;;12.60;99.90;;;;;;4998854;28;20064;-85
2023/12/21 04:12:58;;;;;;;6.45;1.50;;;12.70;99.90;;;;;;4994258;28;20076;-86
2023/12/21 04:15:24;;;;;;;5.32;1.25;;;12.60;99.90;;;;;;5004403;28;20034;-87
2023/12/21 04:17:50;;;;;;;5.40;1.47;;;12.60;99.90;;;;;;5011927;28;20029;-86
2023/12/21 04:20:17;;;;;;;5.40;1.60;;;12.60;99.90;;;;;;4991350;28;20167;-84
2023/12/21 04:22:43;;;;;;;4.63;1.17;;;12.60;99.90;;;;;;4993524;28;20040;-86
2023/12/21 04:25:09;;;;;;;4.37;1.20;;;12.70;99.90;;;;;;4993009;28;20513;-88
2023/12/21 04:27:34;;;;;;;6.78;1.55;;;12.70;99.90;;;;;;5013441;28;20021;-88
2023/12/21 04:30:01;;;;;;;5.00;1.40;;;12.70;99.90;;;;;;4997413;28;20033;-88
2023/12/21 04:32:27;;;;;;;7.53;1.45;;;12.60;99.90;;;;;;4999226;28;20173;-84
2023/12/21 04:34:54;;;;;;;5.90;1.80;;;12.60;99.90;;;;;;5003951;28;20151;-92
2023/12/21 04:37:20;;;;;;;3.72;1.55;;;12.60;99.90;;;;;;5009092;28;20399;-87
2023/12/21 04:39:47;;;;;;;5.93;1.80;;;12.60;99.90;;;;;;4989266;28;20483;-88
2023/12/21 04:42:13;;;;;;;6.32;1.65;;;12.60;99.90;;;;;;4986275;28;20624;-87
2023/12/21 04:44:39;;;;;;;7.85;1.80;;;12.60;99.90;;;;;;5006219;28;20116;-85
2023/12/21 04:47:08;;;;;;;4.07;1.33;;;12.60;99.90;;;;;;4993792;28;20026;-88
2023/12/21 04:49:35;;;;;;;5.40;1.60;;;12.60;99.90;;;;;;5011123;28;20491;-88
2023/12/21 04:52:02;;;;;;;4.13;1.45;;;12.60;99.90;;;;;;5013161;28;20394;-88
2023/12/21 04:54:28;;;;;;;5.05;1.67;;;12.60;99.90;;;;;;4980379;28;20747;-85
2023/12/21 04:56:53;;;;;;;4.03;1.60;;;12.60;99.90;;;;;;4981260;28;20115;-86
2023/12/21 04:59:19;;;;;;;2.55;1.15;;;12.60;99.90;;;;;;4980946;28;20037;-87
2023/12/21 05:01:53;;;;;;;4.20;1.25;;;12.60;99.90;;;;;;4986073;28;20174;-85
2023/12/21 05:04:19;;;;;;;4.67;1.37;;;12.70;99.90;;;;;;5011944;28;20483;-87
2023/12/21 05:06:44;;;;;;;3.78;1.55;;;12.60;99.90;;;;;;5005701;28;20486;-84
2023/12/21 05:09:10;;;;;;;5.07;1.30;;;12.70;99.90;;;;;;5001648;28;20021;-83
2023/12/21 05:11:36;;;;;;;5.60;1.40;;;10.40;99.90;;;;;;4983438;28;20115;-85
2023/12/21 05:14:02;;;;;;;4.95;1.70;;;12.70;99.90;;;;;;4997551;28;20040;-84
2023/12/21 05:16:28;;;;;;;3.17;1.20;;;12.70;99.90;;;;;;5004366;28;20125;-85
2023/12/21 05:18:54;;;;;;;6.82;1.45;;;12.70;99.90;;;;;;5008300;28;20426;-86
2023/12/21 05:21:19;;;;;;;6.00;1.50;;;12.70;99.90;;;;;;5013659;28;20013;-85
2023/12/21 05:23:45;;;;;;;3.28;1.40;;;12.70;99.90;;;;;;5017626;28;20033;-86
2023/12/21 05:26:12;;;;;;;4.73;1.40;;;12.70;99.90;;;;;;4992572;28;20040;-86
2023/12/21 05:28:39;;;;;;;4.97;1.48;;;12.70;99.90;;;;;;4994511;28;20930;-85
2023/12/21 05:31:09;;;;;;;5.35;1.35;;;12.80;99.90;;;;;;5014723;28;20597;-87
2023/12/21 05:33:35;;;;;;;5.90;1.70;;;12.80;99.90;;;;;;4991039;28;20056;-89
2023/12/21 05:36:02;;;;;;;7.20;1.73;;;12.80;99.90;;;;;;5013080;28;20029;-88
2023/12/21 05:38:29;;;;;;;5.30;1.33;;;12.80;99.90;;;;;;4996541;28;20037;-85
2023/12/21 05:40:55;;;;;;;7.50;1.77;;;12.80;99.90;;;;;;4995713;28;20025;-85
2023/12/21 05:43:21;;;;;;;5.70;1.40;;;12.80;99.90;;;;;;4995024;28;20434;-88
2023/12/21 05:45:47;;;;;;;3.85;1.20;;;12.80;99.90;;;;;;5012348;28;20102;-87
2023/12/21 05:48:13;;;;;;;7.77;1.40;;;12.80;99.90;;;;;;5012867;28;20529;-86
2023/12/21 05:50:38;;;;;;;6.13;1.50;;;12.80;99.90;;;;;;5006038;28;20688;-85
2023/12/21 05:53:04;;;;;;;3.30;1.23;;;12.80;99.90;;;;;;5008996;28;20523;-86
2023/12/21 05:55:31;;;;;;;4.40;1.60;;;12.80;99.90;;;;;;4996013;28;20380;-87
2023/12/21 05:57:57;;;;;;;6.95;1.27;;;;;;;;;;4985080;28;20029;-89
2023/12/21 06:00:23;;;;;;;4.93;1.43;;;12.90;99.90;;;;;;4995520;28;20030;-87
2023/12/21 06:02:48;;;;;;;3.63;1.25;;;12.90;99.90;;;;;;4994241;28;20495;-87
2023/12/21 06:05:15;;;;;;;4.87;1.40;;;;;;;;;;5006480;28;20681;-86
2023/12/21 06:07:40;;;;;;;4.70;1.63;;;14.50;99.90;;;;;;4979304;28;20632;-88
2023/12/21 06:10:08;;;;;;;6.25;1.20;;;12.90;99.90;;;;;;5008422;28;20769;-87
2023/12/21 06:12:35;;;;;;;5.10;1.58;;;13.00;99.90;;;;;;4980653;28;20345;-86
2023/12/21 06:15:01;;;;;;;3.27;1.10;;;13.00;99.90;;;;;;5004002;28;20549;-86
2023/12/21 06:17:27;;;;;;;4.60;1.10;;;13.00;99.90;;;;;;5015090;28;20206;-89
2023/12/21 06:19:53;;;;;;;1.95;0.80;;;13.00;99.90;;;;;;5016004;28;20363;-86
2023/12/21 06:22:18;;;;;;;4.30;1.27;;;13.00;99.90;;;;;;5001278;28;20386;-86
2023/12/21 06:24:44;;;;;;;3.67;1.17;;;13.00;99.90;;;;;;4995848;28;20064;-87
2023/12/21 06:27:10;;;;;;;5.27;1.20;;;13.00;99.90;;;;;;5003587;28;20039;-87
2023/12/21 06:29:37;;;;;;;3.38;0.85;;;;;;;;;;4996519;28;20603;-86
2023/12/21 06:32:04;;;;;;;4.00;1.10;;;13.00;99.90;;;;;;5028473;28;20175;-87
2023/12/21 06:34:30;;;;;;;3.97;0.95;;;13.00;99.90;;;;;;5026611;28;20116;-87
2023/12/21 06:36:56;;;;;;;6.60;1.20;;;13.00;99.90;;;;;;4994282;28;20032;-85
2023/12/21 06:39:22;;;;;;;4.82;1.13;;;12.40;99.90;;;;;;4989052;28;20172;-89
2023/12/21 06:41:49;;;;;;;3.80;1.02;;;13.00;99.90;;;;;;4997182;28;20540;-86
2023/12/21 06:44:15;;;;;;;2.73;1.07;;;13.10;99.90;;;;;;5009918;28;20064;-85
2023/12/21 06:46:42;;;;;;;2.90;1.00;;;13.10;99.90;;;;;;4989023;28;20509;-86
2023/12/21 06:49:12;;;;;;;6.53;1.17;;;13.10;99.90;;;;;;5020052;28;20025;-86
2023/12/21 06:51:38;;;;;;;3.53;0.95;;;13.10;99.90;;;;;;5010532;28;20222;-87
2023/12/21 06:54:05;;;;;;;2.80;1.07;;;13.10;99.90;;;;;;5022054;28;21629;-85
2023/12/21 06:56:31;;;;;;;3.63;1.00;;;13.00;99.90;;;;;;4998898;28;20052;-86
2023/12/21 06:58:57;;;;;;;2.43;1.00;;;13.10;99.90;;;;;;5020171;28;20033;-85
2023/12/21 07:01:27;;;;;;;4.57;1.20;;;13.10;99.90;;;;;;5015610;28;20487;-86
2023/12/21 07:03:53;;;;;;;2.67;0.80;;;13.10;99.90;;;;;;5003439;28;20021;-85
2023/12/21 07:06:20;;;;;;;4.65;1.30;;;;;;;;;;5017436;28;20025;-88
2023/12/21 07:08:47;;;;;;;3.60;0.90;;;13.20;99.90;;;;;;5000782;28;20021;-85
2023/12/21 07:11:14;;;;;;;3.35;1.02;;;13.20;99.90;;;;;;5001370;28;20245;-86
2023/12/21 07:13:39;;;;;;;4.38;1.10;;;13.20;99.90;;;;;;5017318;28;20095;-87
2023/12/21 07:16:06;;;;;;;5.03;1.30;;;13.20;99.90;;;;;;4983200;28;20025;-86
2023/12/21 07:18:32;;;;;;;4.03;0.90;;;13.20;99.90;;;;;;4996347;28;20448;-85
2023/12/21 07:20:57;;;;;;;3.28;0.90;;;13.20;99.90;;;;;;5018740;28;20021;-87
2023/12/21 07:23:23;;;;;;;2.10;0.80;;;13.20;99.90;;;;;;4999184;28;20223;-84
2023/12/21 07:25:49;;;;;;;2.40;0.90;;;13.20;99.90;;;;;;5006717;28;20045;-87
2023/12/21 07:28:17;;;;;;;2.50;0.90;;;13.20;99.90;;;;;;4996990;28;20317;-86
2023/12/21 07:30:43;;;;;;;2.72;0.80;;;13.20;99.90;;;;;;5014655;28;20107;-84
2023/12/21 07:33:10;;;;;;;2.72;0.90;;;13.30;99.90;;;;;;5002518;28;20105;-86
2023/12/21 07:35:38;;;;;;;2.65;0.80;;;13.30;99.90;;;;;;4998374;28;20024;-86
2023/12/21 07:38:06;;;;;;;2.40;0.70;;;13.30;99.90;;;;;;5001566;28;20032;-87
2023/12/21 07:40:31;;;;;;;2.60;0.90;;;13.30;99.90;;;;;;5031126;28;20112;-87
2023/12/21 07:42:57;;;;;;;2.58;0.90;;;13.30;99.90;;;;;;5011358;28;20271;-87
2023/12/21 07:45:23;;;;;;;4.93;1.10;;;13.30;99.90;;;;;;5002064;28;20211;-86
2023/12/21 07:47:50;;;;;;;2.75;1.00;;;13.30;99.90;;;;;;5019208;28;20036;-87
2023/12/21 07:50:16;;;;;;;1.88;0.82;;;13.40;99.90;;;;;;5014345;28;20326;-86
2023/12/21 07:52:41;;;;;;;2.97;0.90;;;13.30;99.90;;;;;;5019612;28;20112;-85
2023/12/21 07:55:08;;;;;;;3.60;1.20;;;13.30;99.90;;;;;;4998085;28;20033;-86
2023/12/21 07:57:33;;;;;;;2.75;0.90;;;13.30;99.90;;;;;;4991694;28;20083;-89
2023/12/21 07:59:59;;;;;;;1.75;0.90;;;13.30;99.90;;;;;;4981619;28;20028;-86
2023/12/21 08:02:25;;;;;;;1.90;0.93;;;13.30;99.90;;;;;;5016890;28;20032;-87
2023/12/21 08:04:51;;;;;;;2.33;1.00;;;13.60;99.90;;;;;;4977795;28;20163;-88
2023/12/21 08:07:19;;;;;;;2.80;1.03;;;;;;;;;;5010083;28;20130;-84
2023/12/21 08:09:45;;;;;;;1.85;0.70;;;13.20;99.90;;;;;;5009469;28;20268;-87
2023/12/21 08:12:13;;;;;;;1.70;0.85;;;13.20;99.90;;;;;;5014138;28;20021;-86
2023/12/21 08:14:39;;;;;;;1.92;0.70;;;13.20;99.90;;;;;;4988572;28;20049;-86
2023/12/21 08:17:09;;;;;;;2.50;0.80;;;13.10;99.90;;;;;;5028073;28;20095;-85
2023/12/21 08:19:38;;;;;;;2.33;0.80;;;12.00;99.90;;;;;;4992544;28;20037;-89
2023/12/21 08:22:04;;;;;;;2.30;0.80;;;13.00;99.90;;;;;;4996724;28;20084;-84
2023/12/21 08:24:31;;;;;;;4.05;1.13;;;13.00;99.90;;;;;;4993832;28;20033;-87
2023/12/21 08:26:56;;;;;;;3.30;0.90;;;13.00;99.90;;;;;;5010246;28;20230;-88
2023/12/21 08:29:22;;;;;;;3.40;1.10;;;14.50;99.90;;;;;;4990727;28;20021;-85
2023/12/21 08:31:48;;;;;;;2.05;0.80;;;13.00;99.90;;;;;;4994427;28;20025;-88
2023/12/21 08:34:14;;;;;;;2.40;1.00;;;12.90;99.90;;;;;;5008474;28;20055;-89
2023/12/21 08:36:40;;;;;;;2.70;0.90;;;13.00;99.90;;;;;;4988327;28;20143;-86
2023/12/21 08:39:06;;;;;;;2.22;0.90;;;13.00;99.90;;;;;;5010266;28;20041;-84
2023/12/21 08:41:33;;;;;;;2.15;1.00;;;;;;;;;;5009749;28;20611;-85
2023/12/21 08:43:59;;;;;;;2.27;0.80;;;13.00;99.90;;;;;;4990031;28;20474;-86
2023/12/21 08:46:25;;;;;;;4.07;1.10;;;13.00;99.90;;;;;;4999545;28;20218;-86
2023/12/21 08:48:51;;;;;;;2.63;0.90;;;13.00;99.90;;;;;;5019489;28;20113;-87
2023/12/21 08:51:16;;;;;;;1.63;0.93;;;13.00;99.90;;;;;;4986948;28;20505;-87
2023/12/21 08:53:45;;;;;;;4.18;1.42;;;10.30;99.90;;;;;;5000420;28;20148;-85
2023/12/21 08:56:11;;;;;;;4.03;1.07;;;13.00;99.90;;;;;;5033071;28;20414;-86
2023/12/21 08:58:37;;;;;;;1.90;0.90;;;12.40;99.90;;;;;;4989582;28;21386;-88
2023/12/21 09:01:04;;;;;;;2.55;1.00;;;13.10;99.90;;;;;;5008301;28;21009;-88
2023/12/21 09:03:29;;;;;;;5.07;1.40;;;13.10;99.90;;;;;;5019698;28;20045;-86
2023/12/21 09:05:55;;;;;;;2.23;1.20;;;13.20;99.90;;;;;;5019755;28;20018;-87
2023/12/21 09:08:21;;;;;;;1.90;1.08;;;13.20;99.90;;;;;;5014815;28;20060;-87
2023/12/21 09:10:47;;;;;;;1.70;0.90;;;13.20;99.90;;;;;;5005127;28;20473;-87
2023/12/21 09:13:14;;;;;;;2.22;1.02;;;13.30;99.90;;;;;;4993689;28;20034;-86
2023/12/21 09:15:40;;;;;;;3.42;1.20;;;13.30;99.90;;;;;;5015431;28;20452;-83
2023/12/21 09:18:06;;;;;;;3.03;1.00;;;13.40;99.90;;;;;;4984323;28;20028;-84
2023/12/21 09:20:32;;;;;;;2.70;1.30;;;13.40;99.90;;;;;;4991196;28;20037;-88
2023/12/21 09:22:58;;;;;;;2.75;1.10;;;13.40;99.90;;;;;;5003553;28;20569;-87
2023/12/21 09:25:23;;;;;;;3.30;1.10;;;13.50;99.90;;;;;;5000103;28;20545;-84
2023/12/21 09:27:49;;;;;;;3.95;0.98;;;13.50;99.90;;;;;;5008214;28;20280;-88
2023/12/21 09:30:17;;;;;;;1.30;0.90;;;13.60;99.90;;;;;;5009591;28;20025;-87
2023/12/21 09:32:45;;;;;;;1.60;0.88;;;13.60;99.90;;;;;;4998153;28;20196;-84
2023/12/21 09:35:11;;;;;;;1.83;0.85;;;13.70;99.90;;;;;;5008094;28;20056;-86
2023/12/21 09:37:37;;;;;;;1.10;0.70;;;13.60;99.90;;;;;;4982703;28;20224;-86
2023/12/21 09:40:03;;;;;;;2.20;0.90;;;13.70;99.90;;;;;;4982265;28;20038;-87
2023/12/21 09:42:30;;;;;;;1.48;0.70;;;13.70;99.90;;;;;;5007687;28;20045;-84
2023/12/21 09:44:56;;;;;;;1.85;0.88;;;13.70;99.90;;;;;;5012398;28;20014;-85
2023/12/21 09:47:29;;;;;;;1.60;0.90;;;13.70;99.90;;;;;;4978567;28;20257;-87
2023/12/21 09:49:56;;;;;;;2.40;0.90;;;13.80;99.90;;;;;;5021852;28;20534;-86
2023/12/21 09:52:23;;;;;;;2.35;0.90;;;13.80;99.90;;;;;;4994176;28;20234;-83
2023/12/21 09:54:51;;;;;;;1.73;1.00;;;13.80;99.90;;;;;;4992492;28;20041;-84
2023/12/21 09:57:18;;;;;;;2.42;1.00;;;13.80;99.90;;;;;;4998497;28;20033;-86
2023/12/21 09:59:44;;;;;;;1.75;1.00;;;13.90;99.90;;;;;;4995958;28;20040;-87
2023/12/21 10:02:12;;;;;;;3.10;1.00;;;13.90;99.90;;;;;;5007879;28;20373;-87
2023/12/21 10:04:45;;;;;;;2.60;1.08;;;13.90;99.90;;;;;;4992889;28;20033;-88
2023/12/21 10:07:11;;;;;;;1.75;1.00;;;13.90;99.90;;;;;;4979693;28;20049;-87
2023/12/21 10:09:40;;;;;;;2.78;0.90;;;13.40;99.90;;;;;;4996904;28;20029;-86
2023/12/21 10:12:09;;;;;;;2.33;0.98;;;13.90;99.90;;;;;;4998493;28;20047;-87
2023/12/21 10:14:34;;;;;;;3.03;1.30;;;14.00;99.90;;;;;;4987611;28;20236;-85
2023/12/21 10:17:01;;;;;;;2.13;1.05;;;14.00;99.90;;;;;;5015058;28;20068;-88
2023/12/21 10:19:27;;;;;;;2.33;1.20;;;14.00;99.90;;;;;;4980249;28;20022;-84
2023/12/21 10:21:53;;;;;;;1.10;1.00;;;13.80;99.90;;;;;;5014098;28;20091;-86
2023/12/21 10:24:19;;;;;;;2.38;1.00;;;13.90;99.90;;;;;;5000021;28;20026;-88
2023/12/21 10:26:46;;;;;;;3.05;1.52;;;14.10;99.90;;;;;;4995173;28;20207;-87
2023/12/21 10:29:16;;;;;;;1.77;1.20;;;14.20;99.90;;;;;;4984757;28;20033;-86
2023/12/21 10:31:46;;;;;;;2.07;1.20;;;14.20;99.90;;;;;;5012019;28;20038;-86
2023/12/21 10:34:13;;;;;;;2.40;1.10;;;14.20;99.90;;;;;;4997135;28;20030;-87
2023/12/21 10:36:42;;;;;;;2.95;1.20;;;14.20;99.90;;;;;;4995722;28;20036;-86
2023/12/21 10:39:10;;;;;;;2.10;1.40;;;14.30;99.90;;;;;;4998864;28;20033;-87
2023/12/21 10:41:36;;;;;;;1.95;1.17;;;14.30;99.90;;;;;;4999529;28;20025;-85
2023/12/21 10:44:04;;;;;;;2.60;1.43;;;14.30;99.90;;;;;;4987247;28;20017;-86
2023/12/21 10:46:30;;;;;;;4.03;1.50;;;14.30;99.90;;;;;;4998894;28;20021;-85
2023/12/21 10:49:01;;;;;;;2.75;1.35;;;14.30;99.90;;;;;;4994687;28;20025;-88
2023/12/21 10:51:35;;;;;;;1.30;1.10;;;14.40;99.90;;;;;;4994526;28;20018;-85
2023/12/21 10:54:04;;;;;;;2.58;1.20;;;14.40;99.90;;;;;;5009147;28;20021;-85
2023/12/21 10:56:31;;;;;;;2.30;1.07;;;14.40;99.90;;;;;;4994219;28;20037;-87
2023/12/21 10:59:01;;;;;;;1.73;1.00;;;14.40;99.90;;;;;;5002029;28;20475;-86
2023/12/21 11:01:29;;;;;;;1.90;1.10;;;14.30;99.90;;;;;;5010224;28;20029;-86
2023/12/21 11:03:58;;;;;;;2.05;0.95;;;14.30;99.90;;;;;;4966642;28;20042;-88
2023/12/21 11:06:25;;;;;;;1.80;0.80;;;13.40;99.90;;;;;;4985998;28;20554;-86
2023/12/21 11:08:52;;;;;;;2.17;1.07;;;14.30;99.90;;;;;;4998516;28;20083;-84
2023/12/21 11:11:22;;;;;;;1.83;1.08;;;14.30;99.90;;;;;;4998722;28;20022;-85
2023/12/21 11:13:52;;;;;;;2.17;0.80;;;12.20;99.90;;;;;;4972871;28;20063;-89
2023/12/21 11:16:23;;;;;;;2.83;0.90;;;14.20;99.90;;;;;;5014075;28;20033;-85
2023/12/21 11:18:51;;;;;;;1.30;0.70;;;14.20;99.90;;;;;;4990552;28;20223;-87
2023/12/21 11:21:18;;;;;;;2.93;0.83;;;14.10;99.90;;;;;;5000600;28;20025;-86
2023/12/21 11:23:44;;;;;;;1.55;0.70;;;14.10;99.90;;;;;;4991828;28;20041;-86
2023/12/21 11:26:11;;;;;;;1.25;0.85;;;14.00;99.90;;;;;;4978111;28;20021;-87
2023/12/21 11:28:38;;;;;;;1.40;0.70;;;14.00;99.90;;;;;;4980976;28;20432;-85
2023/12/21 11:31:14;;;;;;;1.02;0.73;;;14.00;99.90;;;;;;5004703;28;20056;-87
2023/12/21 11:33:40;;;;;;;1.87;0.60;;;13.90;99.90;;;;;;5008210;28;20017;-87
2023/12/21 11:36:07;;;;;;;1.65;0.90;;;13.90;99.90;;;;;;4997300;28;20140;-86
2023/12/21 11:38:46;;;;;;;1.17;0.80;;;13.80;99.90;;;;;;4993187;28;20029;-87
2023/12/21 11:41:13;;;;;;;1.25;0.70;;;13.80;99.90;;;;;;4993590;28;20561;-84
2023/12/21 11:43:40;;;;;;;1.63;0.70;;;13.50;99.90;;;;;;5006242;28;20092;-89
2023/12/21 11:46:11;;;;;;;2.73;0.83;;;13.70;99.90;;;;;;4997346;28;20112;-86
2023/12/21 11:48:40;;;;;;;1.92;0.70;;;13.80;99.90;;;;;;4984787;28;20771;-86
2023/12/21 11:51:06;;;;;;;0.93;0.80;;;13.70;99.90;;;;;;5007715;28;20131;-85
2023/12/21 11:53:34;;;;;;;1.98;0.70;;;13.70;99.90;;;;;;4980919;28;20037;-87
2023/12/21 11:56:00;;;;;;;3.10;0.90;;;13.70;99.90;;;;;;4981180;28;20637;-87
2023/12/21 11:58:26;;;;;;;1.30;0.80;;;13.70;99.90;;;;;;5010676;28;20061;-85
2023/12/21 12:00:54;;;;;;;2.30;0.70;;;13.80;99.90;;;;;;4978637;28;20045;-87
2023/12/21 12:03:22;;;;;;;1.65;0.88;;;13.80;99.90;;;;;;4987453;28;20106;-88
2023/12/21 12:05:49;;;;;;;1.55;0.63;;;13.80;99.90;;;;;;5003195;28;20022;-89
2023/12/21 12:08:23;;;;;;;2.72;0.80;;;13.80;99.90;;;;;;4996224;28;20036;-85
2023/12/21 12:10:59;;;;;;;1.27;0.60;;;13.90;99.90;;;;;;5012964;28;20072;-88
2023/12/21 12:13:25;;;;;;;1.25;0.60;;;13.90;99.90;;;;;;5012274;28;20041;-86
2023/12/21 12:15:52;;;;;;;1.85;0.73;;;13.90;99.90;;;;;;5000445;28;20210;-84
2023/12/21 12:18:21;;;;;;;1.65;0.60;;;14.00;99.90;;;;;;5014803;28;20028;-85
2023/12/21 12:20:48;;;;;;;1.80;0.80;;;14.00;99.90;;;;;;4988401;28;20048;-85
2023/12/21 12:23:15;;;;;;;1.70;0.60;;;14.00;99.90;;;;;;5008631;28;20028;-87
2023/12/21 12:25:42;;;;;;;2.10;0.70;;;14.10;99.90;;;;;;4999457;28;20060;-88
2023/12/21 12:28:09;;;;;;;1.10;0.70;;;14.00;99.90;;;;;;5003624;28;20033;-87
2023/12/21 12:30:38;;;;;;;0.70;0.60;;;14.10;99.90;;;;;;5032408;28;20029;-85
2023/12/21 12:33:05;;;;;;;2.08;0.75;;;14.00;99.90;;;;;;4979946;28;20033;-86
2023/12/21 12:35:37;;;;;;;1.90;0.70;;;14.00;99.90;;;;;;5008337;28;20033;-85
2023/12/21 12:38:04;;;;;;;2.33;0.80;;;14.00;99.90;;;;;;5000242;28;20791;-87
2023/12/21 12:40:30;;;;;;;3.95;0.70;;;14.00;99.90;;;;;;4999662;28;20261;-87
2023/12/21 12:42:56;;;;;;;1.20;0.90;;;14.00;99.90;;;;;;4997077;28;20594;-85
2023/12/21 12:45:23;;;;;;;2.03;1.07;;;14.00;99.90;;;;;;5022249;28;20033;-86
2023/12/21 12:47:49;;;;;;;2.67;1.05;;;14.00;99.90;;;;;;4983601;28;20109;-86